sensor_id;sensor_type;location;lat;lon;timestamp;P1;durP1;ratioP1;P2;durP2;ratioP2
39728;SDS011;25402;42.004;23.088;2023-07-31T00:01:56;9.07;;;5.13;;
39728;SDS011;25402;42.004;23.088;2023-07-31T00:04:23;8.63;;;5.05;;
39728;SDS011;25402;42.004;23.088;2023-07-31T00:06:50;13.85;;;4.93;;
39728;SDS011;25402;42.004;23.088;2023-07-31T00:09:17;10.32;;;4.68;;
39728;SDS011;25402;42.004;23.088;2023-07-31T00:11:45;8.73;;;5.22;;
39728;SDS011;25402;42.004;23.088;2023-07-31T00:14:12;14.55;;;5.60;;
39728;SDS011;25402;42.004;23.088;2023-07-31T00:16:39;10.52;;;5.53;;
39728;SDS011;25402;42.004;23.088;2023-07-31T00:19:06;12.60;;;6.03;;
39728;SDS011;25402;42.004;23.088;2023-07-31T00:21:33;13.20;;;6.05;;
39728;SDS011;25402;42.004;23.088;2023-07-31T00:24:00;10.95;;;5.93;;
39728;SDS011;25402;42.004;23.088;2023-07-31T00:26:27;8.95;;;4.13;;
39728;SDS011;25402;42.004;23.088;2023-07-31T00:28:55;8.02;;;3.83;;
39728;SDS011;25402;42.004;23.088;2023-07-31T00:31:22;11.63;;;3.50;;
39728;SDS011;25402;42.004;23.088;2023-07-31T00:33:49;8.65;;;3.50;;
39728;SDS011;25402;42.004;23.088;2023-07-31T00:36:16;10.57;;;3.85;;
39728;SDS011;25402;42.004;23.088;2023-07-31T00:38:44;6.57;;;3.42;;
39728;SDS011;25402;42.004;23.088;2023-07-31T00:41:11;13.27;;;5.03;;
39728;SDS011;25402;42.004;23.088;2023-07-31T00:43:38;7.38;;;3.92;;
39728;SDS011;25402;42.004;23.088;2023-07-31T00:46:06;8.85;;;3.80;;
39728;SDS011;25402;42.004;23.088;2023-07-31T00:48:33;5.90;;;3.78;;
39728;SDS011;25402;42.004;23.088;2023-07-31T00:51:01;8.57;;;3.17;;
39728;SDS011;25402;42.004;23.088;2023-07-31T00:53:28;5.82;;;3.30;;
39728;SDS011;25402;42.004;23.088;2023-07-31T00:55:55;9.10;;;4.10;;
39728;SDS011;25402;42.004;23.088;2023-07-31T00:58:22;8.93;;;3.70;;
39728;SDS011;25402;42.004;23.088;2023-07-31T01:00:49;7.90;;;3.35;;
39728;SDS011;25402;42.004;23.088;2023-07-31T01:03:17;8.77;;;3.60;;
39728;SDS011;25402;42.004;23.088;2023-07-31T01:05:47;10.35;;;3.97;;
39728;SDS011;25402;42.004;23.088;2023-07-31T01:08:22;8.85;;;3.85;;
39728;SDS011;25402;42.004;23.088;2023-07-31T01:10:58;5.85;;;3.75;;
39728;SDS011;25402;42.004;23.088;2023-07-31T01:13:33;8.57;;;3.70;;
39728;SDS011;25402;42.004;23.088;2023-07-31T01:16:00;6.90;;;4.18;;
39728;SDS011;25402;42.004;23.088;2023-07-31T01:18:28;6.78;;;3.92;;
39728;SDS011;25402;42.004;23.088;2023-07-31T01:20:57;5.30;;;3.65;;
39728;SDS011;25402;42.004;23.088;2023-07-31T01:26:36;22.83;;;6.00;;
39728;SDS011;25402;42.004;23.088;2023-07-31T01:29:07;12.70;;;5.25;;
39728;SDS011;25402;42.004;23.088;2023-07-31T01:31:40;13.15;;;9.35;;
39728;SDS011;25402;42.004;23.088;2023-07-31T01:34:10;11.07;;;6.78;;
39728;SDS011;25402;42.004;23.088;2023-07-31T01:36:39;10.75;;;5.97;;
39728;SDS011;25402;42.004;23.088;2023-07-31T01:39:06;11.57;;;6.88;;
39728;SDS011;25402;42.004;23.088;2023-07-31T01:41:33;11.50;;;6.80;;
39728;SDS011;25402;42.004;23.088;2023-07-31T01:44:01;10.88;;;5.95;;
39728;SDS011;25402;42.004;23.088;2023-07-31T01:46:28;13.15;;;5.72;;
39728;SDS011;25402;42.004;23.088;2023-07-31T01:48:55;12.15;;;5.60;;
39728;SDS011;25402;42.004;23.088;2023-07-31T01:51:22;14.43;;;6.03;;
39728;SDS011;25402;42.004;23.088;2023-07-31T01:53:48;14.90;;;6.10;;
39728;SDS011;25402;42.004;23.088;2023-07-31T01:56:15;10.23;;;5.70;;
39728;SDS011;25402;42.004;23.088;2023-07-31T01:58:42;8.93;;;5.50;;
39728;SDS011;25402;42.004;23.088;2023-07-31T02:01:10;16.05;;;6.40;;
39728;SDS011;25402;42.004;23.088;2023-07-31T02:03:38;13.70;;;5.88;;
39728;SDS011;25402;42.004;23.088;2023-07-31T02:06:05;12.25;;;5.43;;
39728;SDS011;25402;42.004;23.088;2023-07-31T02:08:31;11.00;;;6.10;;
39728;SDS011;25402;42.004;23.088;2023-07-31T02:10:58;9.85;;;5.93;;
39728;SDS011;25402;42.004;23.088;2023-07-31T02:13:25;13.60;;;5.75;;
39728;SDS011;25402;42.004;23.088;2023-07-31T02:15:52;7.40;;;5.50;;
39728;SDS011;25402;42.004;23.088;2023-07-31T02:18:21;12.52;;;6.13;;
39728;SDS011;25402;42.004;23.088;2023-07-31T02:20:49;10.38;;;6.13;;
39728;SDS011;25402;42.004;23.088;2023-07-31T02:23:16;11.40;;;5.72;;
39728;SDS011;25402;42.004;23.088;2023-07-31T02:25:43;10.50;;;5.30;;
39728;SDS011;25402;42.004;23.088;2023-07-31T02:28:11;8.73;;;5.50;;
39728;SDS011;25402;42.004;23.088;2023-07-31T02:30:37;9.23;;;5.70;;
39728;SDS011;25402;42.004;23.088;2023-07-31T02:33:04;12.48;;;6.10;;
39728;SDS011;25402;42.004;23.088;2023-07-31T02:35:33;13.35;;;6.10;;
39728;SDS011;25402;42.004;23.088;2023-07-31T02:38:00;8.65;;;5.50;;
39728;SDS011;25402;42.004;23.088;2023-07-31T02:40:30;14.55;;;5.57;;
39728;SDS011;25402;42.004;23.088;2023-07-31T02:42:57;9.60;;;6.13;;
39728;SDS011;25402;42.004;23.088;2023-07-31T02:45:23;10.02;;;6.30;;
39728;SDS011;25402;42.004;23.088;2023-07-31T02:47:51;9.48;;;5.80;;
39728;SDS011;25402;42.004;23.088;2023-07-31T02:50:18;9.55;;;4.75;;
39728;SDS011;25402;42.004;23.088;2023-07-31T02:52:46;9.80;;;5.13;;
39728;SDS011;25402;42.004;23.088;2023-07-31T02:55:13;8.85;;;4.70;;
39728;SDS011;25402;42.004;23.088;2023-07-31T02:57:40;12.65;;;5.55;;
39728;SDS011;25402;42.004;23.088;2023-07-31T03:00:07;13.50;;;8.90;;
39728;SDS011;25402;42.004;23.088;2023-07-31T03:02:34;16.65;;;5.43;;
39728;SDS011;25402;42.004;23.088;2023-07-31T03:05:01;13.50;;;6.20;;
39728;SDS011;25402;42.004;23.088;2023-07-31T03:07:28;8.15;;;5.97;;
39728;SDS011;25402;42.004;23.088;2023-07-31T03:09:57;12.35;;;6.25;;
39728;SDS011;25402;42.004;23.088;2023-07-31T03:12:24;9.43;;;5.57;;
39728;SDS011;25402;42.004;23.088;2023-07-31T03:14:51;12.02;;;5.47;;
39728;SDS011;25402;42.004;23.088;2023-07-31T03:17:20;11.55;;;5.88;;
39728;SDS011;25402;42.004;23.088;2023-07-31T03:19:47;13.10;;;6.15;;
39728;SDS011;25402;42.004;23.088;2023-07-31T03:22:14;11.18;;;6.43;;
39728;SDS011;25402;42.004;23.088;2023-07-31T03:24:41;15.88;;;6.60;;
39728;SDS011;25402;42.004;23.088;2023-07-31T03:27:09;16.98;;;7.15;;
39728;SDS011;25402;42.004;23.088;2023-07-31T03:29:36;13.70;;;6.45;;
39728;SDS011;25402;42.004;23.088;2023-07-31T03:32:04;14.70;;;6.47;;
39728;SDS011;25402;42.004;23.088;2023-07-31T03:34:31;11.10;;;6.15;;
39728;SDS011;25402;42.004;23.088;2023-07-31T03:36:59;16.15;;;7.00;;
39728;SDS011;25402;42.004;23.088;2023-07-31T03:39:26;12.00;;;6.32;;
39728;SDS011;25402;42.004;23.088;2023-07-31T03:41:53;10.10;;;6.50;;
39728;SDS011;25402;42.004;23.088;2023-07-31T03:44:21;15.23;;;6.78;;
39728;SDS011;25402;42.004;23.088;2023-07-31T03:46:48;11.60;;;6.72;;
39728;SDS011;25402;42.004;23.088;2023-07-31T03:49:15;14.98;;;6.75;;
39728;SDS011;25402;42.004;23.088;2023-07-31T03:51:42;15.32;;;7.35;;
39728;SDS011;25402;42.004;23.088;2023-07-31T03:54:09;13.48;;;7.70;;
39728;SDS011;25402;42.004;23.088;2023-07-31T03:56:36;11.80;;;6.75;;
39728;SDS011;25402;42.004;23.088;2023-07-31T03:59:04;13.77;;;8.32;;
39728;SDS011;25402;42.004;23.088;2023-07-31T04:01:32;12.90;;;8.95;;
39728;SDS011;25402;42.004;23.088;2023-07-31T04:03:59;19.52;;;12.55;;
39728;SDS011;25402;42.004;23.088;2023-07-31T04:06:26;12.82;;;7.45;;
39728;SDS011;25402;42.004;23.088;2023-07-31T04:08:53;11.10;;;7.07;;
39728;SDS011;25402;42.004;23.088;2023-07-31T04:11:19;13.68;;;6.70;;
39728;SDS011;25402;42.004;23.088;2023-07-31T04:13:46;10.75;;;6.90;;
39728;SDS011;25402;42.004;23.088;2023-07-31T04:16:13;15.73;;;8.00;;
39728;SDS011;25402;42.004;23.088;2023-07-31T04:18:42;15.35;;;7.55;;
39728;SDS011;25402;42.004;23.088;2023-07-31T04:21:09;12.93;;;7.57;;
39728;SDS011;25402;42.004;23.088;2023-07-31T04:23:36;20.85;;;7.53;;
39728;SDS011;25402;42.004;23.088;2023-07-31T04:26:06;13.90;;;7.10;;
39728;SDS011;25402;42.004;23.088;2023-07-31T04:28:33;13.70;;;6.78;;
39728;SDS011;25402;42.004;23.088;2023-07-31T04:31:00;10.23;;;6.53;;
39728;SDS011;25402;42.004;23.088;2023-07-31T04:33:27;15.52;;;8.38;;
39728;SDS011;25402;42.004;23.088;2023-07-31T04:35:55;25.27;;;12.60;;
39728;SDS011;25402;42.004;23.088;2023-07-31T04:38:24;16.25;;;6.88;;
39728;SDS011;25402;42.004;23.088;2023-07-31T04:40:51;25.33;;;10.82;;
39728;SDS011;25402;42.004;23.088;2023-07-31T04:43:18;13.43;;;10.15;;
39728;SDS011;25402;42.004;23.088;2023-07-31T04:45:45;21.88;;;7.90;;
39728;SDS011;25402;42.004;23.088;2023-07-31T04:48:13;15.10;;;9.88;;
39728;SDS011;25402;42.004;23.088;2023-07-31T04:50:40;24.48;;;9.43;;
39728;SDS011;25402;42.004;23.088;2023-07-31T04:53:08;17.00;;;7.13;;
39728;SDS011;25402;42.004;23.088;2023-07-31T04:55:35;12.27;;;6.45;;
39728;SDS011;25402;42.004;23.088;2023-07-31T04:58:03;14.93;;;7.32;;
39728;SDS011;25402;42.004;23.088;2023-07-31T05:00:30;6.78;;;3.65;;
39728;SDS011;25402;42.004;23.088;2023-07-31T05:02:58;13.63;;;6.50;;
39728;SDS011;25402;42.004;23.088;2023-07-31T05:05:26;11.55;;;5.85;;
39728;SDS011;25402;42.004;23.088;2023-07-31T05:07:56;11.88;;;5.10;;
39728;SDS011;25402;42.004;23.088;2023-07-31T05:10:26;13.52;;;5.60;;
39728;SDS011;25402;42.004;23.088;2023-07-31T05:12:53;13.98;;;7.03;;
39728;SDS011;25402;42.004;23.088;2023-07-31T05:15:20;9.27;;;5.38;;
39728;SDS011;25402;42.004;23.088;2023-07-31T05:17:47;8.25;;;5.50;;
39728;SDS011;25402;42.004;23.088;2023-07-31T05:20:14;10.98;;;6.22;;
39728;SDS011;25402;42.004;23.088;2023-07-31T05:22:45;9.35;;;5.20;;
39728;SDS011;25402;42.004;23.088;2023-07-31T05:25:12;15.93;;;7.68;;
39728;SDS011;25402;42.004;23.088;2023-07-31T05:27:42;16.58;;;4.07;;
39728;SDS011;25402;42.004;23.088;2023-07-31T05:30:09;26.23;;;6.30;;
39728;SDS011;25402;42.004;23.088;2023-07-31T05:32:39;18.58;;;5.72;;
39728;SDS011;25402;42.004;23.088;2023-07-31T05:35:06;17.80;;;6.75;;
39728;SDS011;25402;42.004;23.088;2023-07-31T05:37:34;17.48;;;7.82;;
39728;SDS011;25402;42.004;23.088;2023-07-31T05:40:01;16.42;;;8.20;;
39728;SDS011;25402;42.004;23.088;2023-07-31T05:42:32;16.33;;;8.40;;
39728;SDS011;25402;42.004;23.088;2023-07-31T05:45:02;13.00;;;9.70;;
39728;SDS011;25402;42.004;23.088;2023-07-31T05:47:30;15.20;;;9.23;;
39728;SDS011;25402;42.004;23.088;2023-07-31T05:49:57;21.98;;;8.15;;
39728;SDS011;25402;42.004;23.088;2023-07-31T05:52:26;15.15;;;10.40;;
39728;SDS011;25402;42.004;23.088;2023-07-31T05:54:58;16.50;;;10.23;;
39728;SDS011;25402;42.004;23.088;2023-07-31T05:57:25;15.88;;;10.68;;
39728;SDS011;25402;42.004;23.088;2023-07-31T05:59:52;14.38;;;10.15;;
39728;SDS011;25402;42.004;23.088;2023-07-31T06:02:21;13.38;;;11.68;;
39728;SDS011;25402;42.004;23.088;2023-07-31T06:04:48;22.80;;;12.05;;
39728;SDS011;25402;42.004;23.088;2023-07-31T06:07:17;14.45;;;11.15;;
39728;SDS011;25402;42.004;23.088;2023-07-31T06:09:44;18.88;;;12.07;;
39728;SDS011;25402;42.004;23.088;2023-07-31T06:12:11;15.93;;;12.35;;
39728;SDS011;25402;42.004;23.088;2023-07-31T06:14:39;14.07;;;11.32;;
39728;SDS011;25402;42.004;23.088;2023-07-31T06:17:06;14.70;;;11.75;;
39728;SDS011;25402;42.004;23.088;2023-07-31T06:19:35;18.02;;;12.70;;
39728;SDS011;25402;42.004;23.088;2023-07-31T06:22:02;15.43;;;12.60;;
39728;SDS011;25402;42.004;23.088;2023-07-31T06:24:29;18.67;;;12.88;;
39728;SDS011;25402;42.004;23.088;2023-07-31T06:26:56;15.57;;;12.98;;
39728;SDS011;25402;42.004;23.088;2023-07-31T06:29:23;18.45;;;12.65;;
39728;SDS011;25402;42.004;23.088;2023-07-31T06:31:51;13.68;;;11.77;;
39728;SDS011;25402;42.004;23.088;2023-07-31T06:34:21;13.90;;;11.48;;
39728;SDS011;25402;42.004;23.088;2023-07-31T06:36:50;13.32;;;11.52;;
39728;SDS011;25402;42.004;23.088;2023-07-31T06:39:19;13.10;;;10.60;;
39728;SDS011;25402;42.004;23.088;2023-07-31T06:41:46;17.55;;;10.60;;
39728;SDS011;25402;42.004;23.088;2023-07-31T06:44:13;16.02;;;11.95;;
39728;SDS011;25402;42.004;23.088;2023-07-31T06:46:40;13.15;;;10.90;;
39728;SDS011;25402;42.004;23.088;2023-07-31T06:49:07;14.75;;;10.57;;
39728;SDS011;25402;42.004;23.088;2023-07-31T06:51:34;17.52;;;11.20;;
39728;SDS011;25402;42.004;23.088;2023-07-31T06:54:05;16.60;;;11.00;;
39728;SDS011;25402;42.004;23.088;2023-07-31T06:56:32;13.13;;;10.70;;
39728;SDS011;25402;42.004;23.088;2023-07-31T06:58:59;21.30;;;11.20;;
39728;SDS011;25402;42.004;23.088;2023-07-31T07:01:27;14.07;;;11.30;;
39728;SDS011;25402;42.004;23.088;2023-07-31T07:03:54;15.77;;;13.07;;
39728;SDS011;25402;42.004;23.088;2023-07-31T07:06:23;19.15;;;13.73;;
39728;SDS011;25402;42.004;23.088;2023-07-31T07:08:50;16.15;;;11.60;;
39728;SDS011;25402;42.004;23.088;2023-07-31T07:11:18;15.57;;;13.13;;
39728;SDS011;25402;42.004;23.088;2023-07-31T07:13:47;14.50;;;10.70;;
39728;SDS011;25402;42.004;23.088;2023-07-31T07:16:15;15.13;;;11.55;;
39728;SDS011;25402;42.004;23.088;2023-07-31T07:18:42;16.42;;;11.18;;
39728;SDS011;25402;42.004;23.088;2023-07-31T07:21:09;13.00;;;10.65;;
39728;SDS011;25402;42.004;23.088;2023-07-31T07:23:39;16.90;;;10.57;;
39728;SDS011;25402;42.004;23.088;2023-07-31T07:26:07;16.83;;;10.90;;
39728;SDS011;25402;42.004;23.088;2023-07-31T07:28:36;14.75;;;10.38;;
39728;SDS011;25402;42.004;23.088;2023-07-31T07:31:03;16.88;;;11.65;;
39728;SDS011;25402;42.004;23.088;2023-07-31T07:38:35;14.57;;;11.25;;
39728;SDS011;25402;42.004;23.088;2023-07-31T07:41:04;16.35;;;10.82;;
39728;SDS011;25402;42.004;23.088;2023-07-31T07:43:31;13.25;;;10.98;;
39728;SDS011;25402;42.004;23.088;2023-07-31T07:45:59;16.35;;;10.73;;
39728;SDS011;25402;42.004;23.088;2023-07-31T07:48:27;11.60;;;10.10;;
39728;SDS011;25402;42.004;23.088;2023-07-31T07:50:54;11.77;;;10.00;;
39728;SDS011;25402;42.004;23.088;2023-07-31T07:53:21;11.73;;;10.38;;
39728;SDS011;25402;42.004;23.088;2023-07-31T07:55:48;14.63;;;10.20;;
39728;SDS011;25402;42.004;23.088;2023-07-31T07:58:19;13.13;;;10.18;;
39728;SDS011;25402;42.004;23.088;2023-07-31T08:00:50;10.98;;;9.80;;
39728;SDS011;25402;42.004;23.088;2023-07-31T08:03:20;12.73;;;8.88;;
39728;SDS011;25402;42.004;23.088;2023-07-31T08:05:47;13.02;;;9.38;;
39728;SDS011;25402;42.004;23.088;2023-07-31T08:08:15;10.10;;;8.52;;
39728;SDS011;25402;42.004;23.088;2023-07-31T08:10:42;9.18;;;8.20;;
39728;SDS011;25402;42.004;23.088;2023-07-31T08:13:10;9.43;;;8.45;;
39728;SDS011;25402;42.004;23.088;2023-07-31T08:15:40;10.85;;;8.80;;
39728;SDS011;25402;42.004;23.088;2023-07-31T08:18:07;12.57;;;8.18;;
39728;SDS011;25402;42.004;23.088;2023-07-31T08:20:36;9.00;;;7.68;;
39728;SDS011;25402;42.004;23.088;2023-07-31T08:23:03;8.88;;;7.80;;
39728;SDS011;25402;42.004;23.088;2023-07-31T08:25:30;10.23;;;7.70;;
39728;SDS011;25402;42.004;23.088;2023-07-31T08:28:01;7.57;;;6.60;;
39728;SDS011;25402;42.004;23.088;2023-07-31T08:30:30;6.95;;;6.18;;
39728;SDS011;25402;42.004;23.088;2023-07-31T08:32:58;9.02;;;5.97;;
39728;SDS011;25402;42.004;23.088;2023-07-31T08:35:26;9.35;;;6.68;;
39728;SDS011;25402;42.004;23.088;2023-07-31T08:37:55;8.23;;;6.68;;
39728;SDS011;25402;42.004;23.088;2023-07-31T08:40:22;7.68;;;5.03;;
39728;SDS011;25402;42.004;23.088;2023-07-31T08:42:50;6.85;;;5.57;;
39728;SDS011;25402;42.004;23.088;2023-07-31T08:45:23;10.65;;;5.97;;
39728;SDS011;25402;42.004;23.088;2023-07-31T08:47:51;7.32;;;5.95;;
39728;SDS011;25402;42.004;23.088;2023-07-31T08:50:18;8.45;;;5.43;;
39728;SDS011;25402;42.004;23.088;2023-07-31T08:52:47;5.70;;;4.97;;
39728;SDS011;25402;42.004;23.088;2023-07-31T08:55:16;5.10;;;4.60;;
39728;SDS011;25402;42.004;23.088;2023-07-31T08:57:48;6.80;;;5.43;;
39728;SDS011;25402;42.004;23.088;2023-07-31T09:00:18;10.23;;;4.78;;
39728;SDS011;25402;42.004;23.088;2023-07-31T09:02:52;5.93;;;4.70;;
39728;SDS011;25402;42.004;23.088;2023-07-31T09:05:24;5.85;;;4.82;;
39728;SDS011;25402;42.004;23.088;2023-07-31T09:07:59;7.70;;;5.20;;
39728;SDS011;25402;42.004;23.088;2023-07-31T09:10:30;6.70;;;5.22;;
39728;SDS011;25402;42.004;23.088;2023-07-31T09:12:57;9.60;;;6.00;;
39728;SDS011;25402;42.004;23.088;2023-07-31T09:15:27;10.18;;;5.75;;
39728;SDS011;25402;42.004;23.088;2023-07-31T09:17:58;6.80;;;5.15;;
39728;SDS011;25402;42.004;23.088;2023-07-31T09:20:26;8.67;;;4.47;;
39728;SDS011;25402;42.004;23.088;2023-07-31T09:22:54;8.05;;;5.10;;
39728;SDS011;25402;42.004;23.088;2023-07-31T09:25:22;6.88;;;4.57;;
39728;SDS011;25402;42.004;23.088;2023-07-31T09:27:52;5.22;;;4.03;;
39728;SDS011;25402;42.004;23.088;2023-07-31T09:30:21;5.30;;;3.75;;
39728;SDS011;25402;42.004;23.088;2023-07-31T09:32:51;4.85;;;3.60;;
39728;SDS011;25402;42.004;23.088;2023-07-31T09:35:29;4.50;;;3.75;;
39728;SDS011;25402;42.004;23.088;2023-07-31T09:37:59;6.50;;;3.70;;
39728;SDS011;25402;42.004;23.088;2023-07-31T09:40:30;3.92;;;3.47;;
39728;SDS011;25402;42.004;23.088;2023-07-31T09:42:59;4.30;;;3.20;;
39728;SDS011;25402;42.004;23.088;2023-07-31T09:45:27;3.85;;;3.45;;
39728;SDS011;25402;42.004;23.088;2023-07-31T09:47:55;4.75;;;3.08;;
39728;SDS011;25402;42.004;23.088;2023-07-31T09:50:23;5.80;;;3.20;;
39728;SDS011;25402;42.004;23.088;2023-07-31T09:52:51;4.72;;;2.70;;
39728;SDS011;25402;42.004;23.088;2023-07-31T09:55:18;5.38;;;3.10;;
39728;SDS011;25402;42.004;23.088;2023-07-31T09:57:47;7.55;;;2.70;;
39728;SDS011;25402;42.004;23.088;2023-07-31T10:00:18;10.43;;;2.88;;
39728;SDS011;25402;42.004;23.088;2023-07-31T10:02:50;5.18;;;2.83;;
39728;SDS011;25402;42.004;23.088;2023-07-31T10:05:17;3.40;;;2.88;;
39728;SDS011;25402;42.004;23.088;2023-07-31T10:07:48;5.82;;;2.70;;
39728;SDS011;25402;42.004;23.088;2023-07-31T10:10:20;6.40;;;2.97;;
39728;SDS011;25402;42.004;23.088;2023-07-31T10:12:47;5.55;;;2.80;;
39728;SDS011;25402;42.004;23.088;2023-07-31T10:15:15;3.97;;;2.75;;
39728;SDS011;25402;42.004;23.088;2023-07-31T10:17:45;6.70;;;3.13;;
39728;SDS011;25402;42.004;23.088;2023-07-31T10:20:14;5.38;;;3.30;;
39728;SDS011;25402;42.004;23.088;2023-07-31T10:22:44;6.57;;;3.35;;
39728;SDS011;25402;42.004;23.088;2023-07-31T10:25:12;4.32;;;2.90;;
39728;SDS011;25402;42.004;23.088;2023-07-31T10:27:41;4.53;;;2.97;;
39728;SDS011;25402;42.004;23.088;2023-07-31T10:30:09;2.63;;;2.42;;
39728;SDS011;25402;42.004;23.088;2023-07-31T10:32:41;2.85;;;2.60;;
39728;SDS011;25402;42.004;23.088;2023-07-31T10:35:10;3.10;;;2.60;;
39728;SDS011;25402;42.004;23.088;2023-07-31T10:37:39;3.38;;;2.28;;
39728;SDS011;25402;42.004;23.088;2023-07-31T10:40:10;6.53;;;2.63;;
39728;SDS011;25402;42.004;23.088;2023-07-31T10:42:45;3.65;;;2.58;;
39728;SDS011;25402;42.004;23.088;2023-07-31T10:45:14;13.50;;;3.22;;
39728;SDS011;25402;42.004;23.088;2023-07-31T10:47:57;4.97;;;3.00;;
39728;SDS011;25402;42.004;23.088;2023-07-31T10:50:25;4.20;;;2.53;;
39728;SDS011;25402;42.004;23.088;2023-07-31T10:52:53;12.95;;;2.70;;
39728;SDS011;25402;42.004;23.088;2023-07-31T10:55:25;2.60;;;2.15;;
39728;SDS011;25402;42.004;23.088;2023-07-31T10:58:00;4.05;;;2.15;;
39728;SDS011;25402;42.004;23.088;2023-07-31T11:00:32;2.33;;;2.13;;
39728;SDS011;25402;42.004;23.088;2023-07-31T11:03:03;5.15;;;2.65;;
39728;SDS011;25402;42.004;23.088;2023-07-31T11:05:45;3.58;;;2.33;;
39728;SDS011;25402;42.004;23.088;2023-07-31T11:08:17;4.85;;;2.20;;
39728;SDS011;25402;42.004;23.088;2023-07-31T11:10:46;3.72;;;2.17;;
39728;SDS011;25402;42.004;23.088;2023-07-31T11:13:15;4.00;;;1.92;;
39728;SDS011;25402;42.004;23.088;2023-07-31T11:15:42;3.10;;;1.88;;
39728;SDS011;25402;42.004;23.088;2023-07-31T11:18:11;5.47;;;1.80;;
39728;SDS011;25402;42.004;23.088;2023-07-31T11:20:38;5.65;;;2.03;;
39728;SDS011;25402;42.004;23.088;2023-07-31T11:23:07;3.17;;;1.75;;
39728;SDS011;25402;42.004;23.088;2023-07-31T11:25:36;6.15;;;1.73;;
39728;SDS011;25402;42.004;23.088;2023-07-31T11:28:05;1.70;;;1.60;;
39728;SDS011;25402;42.004;23.088;2023-07-31T11:30:34;6.80;;;1.92;;
39728;SDS011;25402;42.004;23.088;2023-07-31T11:33:02;6.15;;;1.70;;
39728;SDS011;25402;42.004;23.088;2023-07-31T11:35:33;4.15;;;1.98;;
39728;SDS011;25402;42.004;23.088;2023-07-31T11:38:02;12.27;;;2.10;;
39728;SDS011;25402;42.004;23.088;2023-07-31T11:40:29;3.47;;;2.15;;
39728;SDS011;25402;42.004;23.088;2023-07-31T11:42:56;5.35;;;2.17;;
39728;SDS011;25402;42.004;23.088;2023-07-31T11:45:27;2.42;;;1.92;;
39728;SDS011;25402;42.004;23.088;2023-07-31T11:48:06;4.78;;;2.65;;
39728;SDS011;25402;42.004;23.088;2023-07-31T11:50:49;2.03;;;1.83;;
39728;SDS011;25402;42.004;23.088;2023-07-31T11:53:31;3.72;;;2.17;;
39728;SDS011;25402;42.004;23.088;2023-07-31T11:56:07;5.50;;;1.70;;
39728;SDS011;25402;42.004;23.088;2023-07-31T11:58:43;2.80;;;2.00;;
39728;SDS011;25402;42.004;23.088;2023-07-31T12:01:15;2.50;;;1.67;;
39728;SDS011;25402;42.004;23.088;2023-07-31T12:03:46;7.13;;;2.45;;
39728;SDS011;25402;42.004;23.088;2023-07-31T12:06:22;4.10;;;2.72;;
39728;SDS011;25402;42.004;23.088;2023-07-31T12:09:00;2.22;;;2.03;;
39728;SDS011;25402;42.004;23.088;2023-07-31T12:11:42;6.75;;;2.15;;
39728;SDS011;25402;42.004;23.088;2023-07-31T12:14:18;2.13;;;1.75;;
39728;SDS011;25402;42.004;23.088;2023-07-31T12:16:54;2.05;;;1.85;;
39728;SDS011;25402;42.004;23.088;2023-07-31T12:19:22;4.22;;;1.98;;
39728;SDS011;25402;42.004;23.088;2023-07-31T12:21:50;3.22;;;2.00;;
39728;SDS011;25402;42.004;23.088;2023-07-31T12:24:18;6.63;;;2.17;;
39728;SDS011;25402;42.004;23.088;2023-07-31T12:26:46;6.90;;;2.10;;
39728;SDS011;25402;42.004;23.088;2023-07-31T12:29:14;2.38;;;1.98;;
39728;SDS011;25402;42.004;23.088;2023-07-31T12:31:43;3.17;;;2.10;;
39728;SDS011;25402;42.004;23.088;2023-07-31T12:34:17;2.75;;;1.60;;
39728;SDS011;25402;42.004;23.088;2023-07-31T12:36:46;6.80;;;1.95;;
39728;SDS011;25402;42.004;23.088;2023-07-31T12:39:15;2.88;;;1.90;;
39728;SDS011;25402;42.004;23.088;2023-07-31T12:41:42;3.38;;;2.10;;
39728;SDS011;25402;42.004;23.088;2023-07-31T12:44:09;2.58;;;2.03;;
39728;SDS011;25402;42.004;23.088;2023-07-31T12:46:36;2.33;;;1.90;;
39728;SDS011;25402;42.004;23.088;2023-07-31T12:49:03;2.30;;;1.75;;
39728;SDS011;25402;42.004;23.088;2023-07-31T12:51:30;5.35;;;2.20;;
39728;SDS011;25402;42.004;23.088;2023-07-31T12:53:57;4.97;;;1.95;;
39728;SDS011;25402;42.004;23.088;2023-07-31T12:56:26;9.40;;;2.00;;
39728;SDS011;25402;42.004;23.088;2023-07-31T12:58:53;3.20;;;1.90;;
39728;SDS011;25402;42.004;23.088;2023-07-31T13:01:22;10.32;;;2.10;;
39728;SDS011;25402;42.004;23.088;2023-07-31T13:03:50;7.50;;;1.95;;
39728;SDS011;25402;42.004;23.088;2023-07-31T13:06:17;2.17;;;1.90;;
39728;SDS011;25402;42.004;23.088;2023-07-31T13:08:44;2.03;;;1.80;;
39728;SDS011;25402;42.004;23.088;2023-07-31T13:11:11;5.40;;;1.85;;
39728;SDS011;25402;42.004;23.088;2023-07-31T13:13:39;3.72;;;2.28;;
39728;SDS011;25402;42.004;23.088;2023-07-31T13:16:06;5.57;;;1.92;;
39728;SDS011;25402;42.004;23.088;2023-07-31T13:18:32;3.33;;;1.80;;
39728;SDS011;25402;42.004;23.088;2023-07-31T13:21:01;3.05;;;1.88;;
39728;SDS011;25402;42.004;23.088;2023-07-31T13:23:27;3.50;;;1.80;;
39728;SDS011;25402;42.004;23.088;2023-07-31T13:25:54;2.63;;;1.90;;
39728;SDS011;25402;42.004;23.088;2023-07-31T13:28:21;3.33;;;2.20;;
39728;SDS011;25402;42.004;23.088;2023-07-31T13:30:50;5.00;;;2.30;;
39728;SDS011;25402;42.004;23.088;2023-07-31T13:33:17;3.08;;;2.20;;
39728;SDS011;25402;42.004;23.088;2023-07-31T13:35:44;4.18;;;2.38;;
39728;SDS011;25402;42.004;23.088;2023-07-31T13:38:12;2.80;;;2.50;;
39728;SDS011;25402;42.004;23.088;2023-07-31T13:40:39;9.35;;;2.90;;
39728;SDS011;25402;42.004;23.088;2023-07-31T13:43:06;7.57;;;3.03;;
39728;SDS011;25402;42.004;23.088;2023-07-31T13:45:33;6.25;;;2.83;;
39728;SDS011;25402;42.004;23.088;2023-07-31T13:48:01;4.50;;;2.72;;
39728;SDS011;25402;42.004;23.088;2023-07-31T13:50:28;5.53;;;2.95;;
39728;SDS011;25402;42.004;23.088;2023-07-31T13:52:56;3.53;;;2.60;;
39728;SDS011;25402;42.004;23.088;2023-07-31T13:55:23;2.78;;;2.53;;
39728;SDS011;25402;42.004;23.088;2023-07-31T13:57:50;3.25;;;2.88;;
39728;SDS011;25402;42.004;23.088;2023-07-31T14:00:18;3.88;;;3.45;;
39728;SDS011;25402;42.004;23.088;2023-07-31T14:02:45;6.53;;;3.75;;
39728;SDS011;25402;42.004;23.088;2023-07-31T14:05:14;8.27;;;3.85;;
39728;SDS011;25402;42.004;23.088;2023-07-31T14:07:42;3.95;;;3.30;;
39728;SDS011;25402;42.004;23.088;2023-07-31T14:10:10;7.93;;;3.55;;
39728;SDS011;25402;42.004;23.088;2023-07-31T14:12:38;3.28;;;2.97;;
39728;SDS011;25402;42.004;23.088;2023-07-31T14:15:08;7.57;;;3.40;;
39728;SDS011;25402;42.004;23.088;2023-07-31T14:17:36;5.78;;;3.20;;
39728;SDS011;25402;42.004;23.088;2023-07-31T14:20:03;4.78;;;3.70;;
39728;SDS011;25402;42.004;23.088;2023-07-31T14:22:32;5.20;;;3.60;;
39728;SDS011;25402;42.004;23.088;2023-07-31T14:24:59;10.63;;;4.28;;
39728;SDS011;25402;42.004;23.088;2023-07-31T14:27:26;7.25;;;4.35;;
39728;SDS011;25402;42.004;23.088;2023-07-31T14:29:53;5.90;;;3.97;;
39728;SDS011;25402;42.004;23.088;2023-07-31T14:32:20;6.05;;;4.47;;
39728;SDS011;25402;42.004;23.088;2023-07-31T14:34:48;13.45;;;4.70;;
39728;SDS011;25402;42.004;23.088;2023-07-31T14:37:15;4.80;;;4.22;;
39728;SDS011;25402;42.004;23.088;2023-07-31T14:39:43;5.43;;;4.60;;
39728;SDS011;25402;42.004;23.088;2023-07-31T14:42:10;4.88;;;4.28;;